Zeltweg, Austria
Current Conditions -  °F | °C
As of 10:50 AM on Tuesday 21 Oct 2014 (Local Time) from LOXZ Reporting Station
Broken Clouds Broken Clouds  
Wind Chill: 55°   Ceiling: 6500
Heat Index: 55°   Visibility: 6mi
Dew Point: 52°   Wind: 1mph
Humidity: 88%   Direction: NA
Pressure: 29.94"   Gusts: NA
Location:  47.19°N, 14.75°E
Report Text: LOXZ 210850Z VRB01KT 10KM FEW005ST BKN065SC 13/11 Q1014 NOSIGRMK BKN
Loading
Personal Weather Stations






























Interactive Weather Map
Tropical Storm Tracking
New forecast layout! Learn more

10-Day Weather Forecast

Advertisements
Track Severe Weather on mobile